sensor_id;sensor_type;location;lat;lon;timestamp;P1;durP1;ratioP1;P2;durP2;ratioP2
36001;SDS011;22070;50.922;5.430;2023-03-23T00:02:28;2.67;;;1.90;;
36001;SDS011;22070;50.922;5.430;2023-03-23T00:05:00;3.15;;;2.17;;
36001;SDS011;22070;50.922;5.430;2023-03-23T00:07:28;4.50;;;2.13;;
36001;SDS011;22070;50.922;5.430;2023-03-23T00:09:54;3.35;;;2.17;;
36001;SDS011;22070;50.922;5.430;2023-03-23T00:12:24;3.53;;;2.10;;
36001;SDS011;22070;50.922;5.430;2023-03-23T00:14:57;4.47;;;2.10;;
36001;SDS011;22070;50.922;5.430;2023-03-23T00:17:27;4.03;;;2.22;;
36001;SDS011;22070;50.922;5.430;2023-03-23T00:19:53;2.67;;;1.92;;
36001;SDS011;22070;50.922;5.430;2023-03-23T00:22:19;2.20;;;1.90;;
36001;SDS011;22070;50.922;5.430;2023-03-23T00:24:46;4.10;;;2.20;;
36001;SDS011;22070;50.922;5.430;2023-03-23T00:27:15;2.60;;;2.03;;
36001;SDS011;22070;50.922;5.430;2023-03-23T00:29:41;3.25;;;2.47;;
36001;SDS011;22070;50.922;5.430;2023-03-23T00:32:08;2.58;;;2.08;;
36001;SDS011;22070;50.922;5.430;2023-03-23T00:34:41;3.90;;;2.40;;
36001;SDS011;22070;50.922;5.430;2023-03-23T00:37:09;4.50;;;2.60;;
36001;SDS011;22070;50.922;5.430;2023-03-23T00:39:35;3.57;;;2.20;;
36001;SDS011;22070;50.922;5.430;2023-03-23T00:42:02;3.95;;;2.20;;
36001;SDS011;22070;50.922;5.430;2023-03-23T00:44:32;2.92;;;1.88;;
36001;SDS011;22070;50.922;5.430;2023-03-23T00:47:00;5.55;;;1.98;;
36001;SDS011;22070;50.922;5.430;2023-03-23T00:49:26;6.18;;;2.33;;
36001;SDS011;22070;50.922;5.430;2023-03-23T00:51:53;2.55;;;1.88;;
36001;SDS011;22070;50.922;5.430;2023-03-23T00:54:20;4.00;;;2.25;;
36001;SDS011;22070;50.922;5.430;2023-03-23T00:59:12;4.33;;;2.10;;
36001;SDS011;22070;50.922;5.430;2023-03-23T01:01:39;3.97;;;2.43;;
36001;SDS011;22070;50.922;5.430;2023-03-23T01:04:05;5.07;;;2.50;;
36001;SDS011;22070;50.922;5.430;2023-03-23T01:06:36;2.47;;;2.10;;
36001;SDS011;22070;50.922;5.430;2023-03-23T01:09:08;5.38;;;2.80;;
36001;SDS011;22070;50.922;5.430;2023-03-23T01:11:36;4.65;;;2.53;;
36001;SDS011;22070;50.922;5.430;2023-03-23T01:14:04;2.53;;;2.20;;
36001;SDS011;22070;50.922;5.430;2023-03-23T01:16:30;3.70;;;2.20;;
36001;SDS011;22070;50.922;5.430;2023-03-23T01:18:55;2.30;;;2.10;;
36001;SDS011;22070;50.922;5.430;2023-03-23T01:21:21;2.70;;;2.30;;
36001;SDS011;22070;50.922;5.430;2023-03-23T01:23:47;4.43;;;2.83;;
36001;SDS011;22070;50.922;5.430;2023-03-23T01:26:14;6.28;;;2.65;;
36001;SDS011;22070;50.922;5.430;2023-03-23T01:28:42;3.13;;;2.60;;
36001;SDS011;22070;50.922;5.430;2023-03-23T01:34:01;6.68;;;2.70;;
36001;SDS011;22070;50.922;5.430;2023-03-23T01:36:29;2.65;;;2.40;;
36001;SDS011;22070;50.922;5.430;2023-03-23T01:38:58;4.95;;;2.58;;
36001;SDS011;22070;50.922;5.430;2023-03-23T01:41:29;3.10;;;2.65;;
36001;SDS011;22070;50.922;5.430;2023-03-23T01:46:30;3.42;;;2.70;;
36001;SDS011;22070;50.922;5.430;2023-03-23T01:48:58;4.68;;;2.65;;
36001;SDS011;22070;50.922;5.430;2023-03-23T01:51:30;3.15;;;2.67;;
36001;SDS011;22070;50.922;5.430;2023-03-23T01:54:00;5.35;;;2.88;;
36001;SDS011;22070;50.922;5.430;2023-03-23T01:56:31;3.03;;;2.42;;
36001;SDS011;22070;50.922;5.430;2023-03-23T01:59:06;4.90;;;2.85;;
36001;SDS011;22070;50.922;5.430;2023-03-23T02:01:35;2.92;;;2.63;;
36001;SDS011;22070;50.922;5.430;2023-03-23T02:04:03;2.95;;;2.67;;
36001;SDS011;22070;50.922;5.430;2023-03-23T02:06:30;3.88;;;2.60;;
36001;SDS011;22070;50.922;5.430;2023-03-23T02:08:55;3.70;;;2.83;;
36001;SDS011;22070;50.922;5.430;2023-03-23T02:11:21;3.88;;;2.80;;
36001;SDS011;22070;50.922;5.430;2023-03-23T02:13:47;4.17;;;2.50;;
36001;SDS011;22070;50.922;5.430;2023-03-23T02:18:46;3.50;;;2.42;;
36001;SDS011;22070;50.922;5.430;2023-03-23T02:35:31;4.85;;;2.80;;
36001;SDS011;22070;50.922;5.430;2023-03-23T02:38:14;2.50;;;2.10;;
36001;SDS011;22070;50.922;5.430;2023-03-23T02:40:44;2.67;;;2.10;;
36001;SDS011;22070;50.922;5.430;2023-03-23T02:43:16;3.03;;;2.60;;
36001;SDS011;22070;50.922;5.430;2023-03-23T02:45:45;6.50;;;2.65;;
36001;SDS011;22070;50.922;5.430;2023-03-23T02:48:11;2.80;;;2.30;;
36001;SDS011;22070;50.922;5.430;2023-03-23T02:50:40;3.90;;;2.60;;
36001;SDS011;22070;50.922;5.430;2023-03-23T02:53:10;2.70;;;2.40;;
36001;SDS011;22070;50.922;5.430;2023-03-23T02:55:39;2.45;;;2.25;;
36001;SDS011;22070;50.922;5.430;2023-03-23T02:58:11;4.53;;;2.42;;
36001;SDS011;22070;50.922;5.430;2023-03-23T03:00:37;2.20;;;2.00;;
36001;SDS011;22070;50.922;5.430;2023-03-23T03:03:04;2.75;;;2.45;;
36001;SDS011;22070;50.922;5.430;2023-03-23T03:05:38;2.35;;;2.15;;
36001;SDS011;22070;50.922;5.430;2023-03-23T03:08:30;3.75;;;2.30;;
36001;SDS011;22070;50.922;5.430;2023-03-23T03:16:38;2.53;;;2.08;;
36001;SDS011;22070;50.922;5.430;2023-03-23T03:19:19;4.35;;;2.40;;
36001;SDS011;22070;50.922;5.430;2023-03-23T03:21:57;2.50;;;2.22;;
36001;SDS011;22070;50.922;5.430;2023-03-23T03:24:24;2.60;;;2.10;;
36001;SDS011;22070;50.922;5.430;2023-03-23T03:26:52;3.70;;;2.13;;
36001;SDS011;22070;50.922;5.430;2023-03-23T03:29:44;3.72;;;2.20;;
36001;SDS011;22070;50.922;5.430;2023-03-23T03:32:15;2.70;;;2.00;;
36001;SDS011;22070;50.922;5.430;2023-03-23T03:34:44;2.20;;;2.00;;
36001;SDS011;22070;50.922;5.430;2023-03-23T03:37:10;3.22;;;2.28;;
36001;SDS011;22070;50.922;5.430;2023-03-23T03:39:37;2.88;;;2.00;;
36001;SDS011;22070;50.922;5.430;2023-03-23T03:42:04;2.50;;;1.80;;
36001;SDS011;22070;50.922;5.430;2023-03-23T03:44:31;4.25;;;2.03;;
36001;SDS011;22070;50.922;5.430;2023-03-23T03:46:57;3.42;;;1.83;;
36001;SDS011;22070;50.922;5.430;2023-03-23T03:49:23;3.50;;;1.97;;
36001;SDS011;22070;50.922;5.430;2023-03-23T03:51:49;2.88;;;2.00;;
36001;SDS011;22070;50.922;5.430;2023-03-23T03:54:15;3.83;;;1.80;;
36001;SDS011;22070;50.922;5.430;2023-03-23T03:56:41;2.27;;;2.07;;
36001;SDS011;22070;50.922;5.430;2023-03-23T03:59:09;3.28;;;1.50;;
36001;SDS011;22070;50.922;5.430;2023-03-23T04:01:36;3.20;;;1.73;;
36001;SDS011;22070;50.922;5.430;2023-03-23T04:04:02;2.40;;;1.52;;
36001;SDS011;22070;50.922;5.430;2023-03-23T04:06:31;2.92;;;1.73;;
36001;SDS011;22070;50.922;5.430;2023-03-23T04:08:57;3.33;;;1.98;;
36001;SDS011;22070;50.922;5.430;2023-03-23T04:11:26;1.98;;;1.60;;
36001;SDS011;22070;50.922;5.430;2023-03-23T04:13:51;2.03;;;1.80;;
36001;SDS011;22070;50.922;5.430;2023-03-23T04:16:17;3.17;;;1.48;;
36001;SDS011;22070;50.922;5.430;2023-03-23T04:18:43;2.58;;;1.67;;
36001;SDS011;22070;50.922;5.430;2023-03-23T04:21:09;2.87;;;1.60;;
36001;SDS011;22070;50.922;5.430;2023-03-23T04:23:35;3.17;;;1.70;;
36001;SDS011;22070;50.922;5.430;2023-03-23T04:26:02;3.05;;;1.48;;
36001;SDS011;22070;50.922;5.430;2023-03-23T04:28:29;4.70;;;1.80;;
36001;SDS011;22070;50.922;5.430;2023-03-23T04:30:58;3.95;;;1.70;;
36001;SDS011;22070;50.922;5.430;2023-03-23T04:33:25;2.47;;;1.42;;
36001;SDS011;22070;50.922;5.430;2023-03-23T04:35:52;3.63;;;1.65;;
36001;SDS011;22070;50.922;5.430;2023-03-23T04:38:20;2.55;;;1.35;;
36001;SDS011;22070;50.922;5.430;2023-03-23T04:40:48;4.00;;;1.58;;
36001;SDS011;22070;50.922;5.430;2023-03-23T04:43:18;4.03;;;1.17;;
36001;SDS011;22070;50.922;5.430;2023-03-23T04:45:46;3.67;;;1.50;;
36001;SDS011;22070;50.922;5.430;2023-03-23T04:48:16;2.55;;;1.25;;
36001;SDS011;22070;50.922;5.430;2023-03-23T04:50:43;1.80;;;1.50;;
36001;SDS011;22070;50.922;5.430;2023-03-23T04:53:09;2.70;;;1.48;;
36001;SDS011;22070;50.922;5.430;2023-03-23T04:55:35;2.30;;;1.27;;
36001;SDS011;22070;50.922;5.430;2023-03-23T04:58:02;3.55;;;1.50;;
36001;SDS011;22070;50.922;5.430;2023-03-23T05:00:29;4.78;;;1.17;;
36001;SDS011;22070;50.922;5.430;2023-03-23T05:02:55;3.83;;;1.27;;
36001;SDS011;22070;50.922;5.430;2023-03-23T05:05:21;6.27;;;1.67;;
36001;SDS011;22070;50.922;5.430;2023-03-23T05:07:48;5.20;;;1.30;;
36001;SDS011;22070;50.922;5.430;2023-03-23T05:10:14;3.80;;;1.02;;
36001;SDS011;22070;50.922;5.430;2023-03-23T05:12:40;9.40;;;1.47;;
36001;SDS011;22070;50.922;5.430;2023-03-23T05:15:07;7.57;;;1.30;;
36001;SDS011;22070;50.922;5.430;2023-03-23T05:17:35;3.42;;;1.30;;
36001;SDS011;22070;50.922;5.430;2023-03-23T05:20:01;4.28;;;1.20;;
36001;SDS011;22070;50.922;5.430;2023-03-23T05:22:34;4.43;;;1.15;;
36001;SDS011;22070;50.922;5.430;2023-03-23T05:25:01;4.15;;;1.20;;
36001;SDS011;22070;50.922;5.430;2023-03-23T05:27:27;4.35;;;1.13;;
36001;SDS011;22070;50.922;5.430;2023-03-23T05:29:55;4.53;;;1.20;;
36001;SDS011;22070;50.922;5.430;2023-03-23T05:32:23;4.25;;;1.27;;
36001;SDS011;22070;50.922;5.430;2023-03-23T05:34:54;5.63;;;1.58;;
36001;SDS011;22070;50.922;5.430;2023-03-23T05:37:24;5.38;;;1.92;;
36001;SDS011;22070;50.922;5.430;2023-03-23T05:39:51;4.28;;;1.20;;
36001;SDS011;22070;50.922;5.430;2023-03-23T05:42:18;3.28;;;1.00;;
36001;SDS011;22070;50.922;5.430;2023-03-23T05:44:47;3.05;;;1.10;;
36001;SDS011;22070;50.922;5.430;2023-03-23T05:47:14;3.95;;;1.20;;
36001;SDS011;22070;50.922;5.430;2023-03-23T05:49:40;4.22;;;1.30;;
36001;SDS011;22070;50.922;5.430;2023-03-23T05:52:06;2.47;;;1.07;;
36001;SDS011;22070;50.922;5.430;2023-03-23T05:54:32;5.47;;;1.30;;
36001;SDS011;22070;50.922;5.430;2023-03-23T05:56:59;3.15;;;1.35;;
36001;SDS011;22070;50.922;5.430;2023-03-23T05:59:25;5.13;;;1.10;;
36001;SDS011;22070;50.922;5.430;2023-03-23T06:01:53;4.55;;;1.33;;
36001;SDS011;22070;50.922;5.430;2023-03-23T06:04:20;4.50;;;1.33;;
36001;SDS011;22070;50.922;5.430;2023-03-23T06:06:49;3.72;;;1.27;;
36001;SDS011;22070;50.922;5.430;2023-03-23T06:09:16;5.95;;;1.23;;
36001;SDS011;22070;50.922;5.430;2023-03-23T06:11:42;5.97;;;1.47;;
36001;SDS011;22070;50.922;5.430;2023-03-23T06:14:09;2.47;;;1.17;;
36001;SDS011;22070;50.922;5.430;2023-03-23T06:16:34;4.30;;;1.80;;
36001;SDS011;22070;50.922;5.430;2023-03-23T06:19:00;4.50;;;1.50;;
36001;SDS011;22070;50.922;5.430;2023-03-23T06:21:28;5.40;;;1.30;;
36001;SDS011;22070;50.922;5.430;2023-03-23T06:23:57;3.60;;;0.95;;
36001;SDS011;22070;50.922;5.430;2023-03-23T06:26:25;6.38;;;1.13;;
36001;SDS011;22070;50.922;5.430;2023-03-23T06:28:58;7.82;;;1.15;;
36001;SDS011;22070;50.922;5.430;2023-03-23T06:31:24;3.45;;;1.30;;
36001;SDS011;22070;50.922;5.430;2023-03-23T06:33:52;2.08;;;1.20;;
36001;SDS011;22070;50.922;5.430;2023-03-23T06:36:18;3.97;;;1.00;;
36001;SDS011;22070;50.922;5.430;2023-03-23T06:38:43;3.05;;;1.00;;
36001;SDS011;22070;50.922;5.430;2023-03-23T06:41:09;4.73;;;1.30;;
36001;SDS011;22070;50.922;5.430;2023-03-23T06:43:36;5.07;;;1.35;;
36001;SDS011;22070;50.922;5.430;2023-03-23T06:46:04;3.10;;;1.08;;
36001;SDS011;22070;50.922;5.430;2023-03-23T06:48:30;3.92;;;1.00;;
36001;SDS011;22070;50.922;5.430;2023-03-23T06:50:57;3.13;;;1.15;;
36001;SDS011;22070;50.922;5.430;2023-03-23T06:53:23;5.22;;;1.50;;
36001;SDS011;22070;50.922;5.430;2023-03-23T06:55:48;2.25;;;1.02;;
36001;SDS011;22070;50.922;5.430;2023-03-23T06:58:15;5.97;;;1.30;;
36001;SDS011;22070;50.922;5.430;2023-03-23T07:00:41;3.87;;;1.30;;
36001;SDS011;22070;50.922;5.430;2023-03-23T07:03:06;6.87;;;1.30;;
36001;SDS011;22070;50.922;5.430;2023-03-23T07:05:33;2.60;;;1.25;;
36001;SDS011;22070;50.922;5.430;2023-03-23T07:08:00;4.18;;;1.15;;
36001;SDS011;22070;50.922;5.430;2023-03-23T07:10:27;5.93;;;1.50;;
36001;SDS011;22070;50.922;5.430;2023-03-23T07:12:53;3.93;;;1.20;;
36001;SDS011;22070;50.922;5.430;2023-03-23T07:15:19;4.32;;;1.20;;
36001;SDS011;22070;50.922;5.430;2023-03-23T07:17:44;3.13;;;1.27;;
36001;SDS011;22070;50.922;5.430;2023-03-23T07:20:12;6.13;;;1.33;;
36001;SDS011;22070;50.922;5.430;2023-03-23T07:22:38;6.45;;;1.15;;
36001;SDS011;22070;50.922;5.430;2023-03-23T07:25:04;4.55;;;1.05;;
36001;SDS011;22070;50.922;5.430;2023-03-23T07:27:30;6.70;;;1.20;;
36001;SDS011;22070;50.922;5.430;2023-03-23T07:29:55;6.03;;;0.90;;
36001;SDS011;22070;50.922;5.430;2023-03-23T07:32:22;4.05;;;1.10;;
36001;SDS011;22070;50.922;5.430;2023-03-23T07:34:49;2.00;;;0.98;;
36001;SDS011;22070;50.922;5.430;2023-03-23T07:37:15;6.07;;;1.23;;
36001;SDS011;22070;50.922;5.430;2023-03-23T07:39:42;5.13;;;1.10;;
36001;SDS011;22070;50.922;5.430;2023-03-23T07:42:07;5.63;;;1.33;;
36001;SDS011;22070;50.922;5.430;2023-03-23T07:44:33;4.78;;;1.17;;
36001;SDS011;22070;50.922;5.430;2023-03-23T07:46:59;6.70;;;1.17;;
36001;SDS011;22070;50.922;5.430;2023-03-23T07:49:25;3.63;;;1.20;;
36001;SDS011;22070;50.922;5.430;2023-03-23T07:51:51;6.40;;;1.73;;
36001;SDS011;22070;50.922;5.430;2023-03-23T07:54:17;5.60;;;1.20;;
36001;SDS011;22070;50.922;5.430;2023-03-23T07:56:43;6.27;;;1.40;;
36001;SDS011;22070;50.922;5.430;2023-03-23T07:59:10;3.15;;;1.17;;
36001;SDS011;22070;50.922;5.430;2023-03-23T08:01:37;4.43;;;1.10;;
36001;SDS011;22070;50.922;5.430;2023-03-23T08:04:04;6.05;;;1.38;;
36001;SDS011;22070;50.922;5.430;2023-03-23T08:06:31;4.32;;;1.17;;
36001;SDS011;22070;50.922;5.430;2023-03-23T08:08:58;3.83;;;1.08;;
36001;SDS011;22070;50.922;5.430;2023-03-23T08:11:25;4.10;;;1.20;;
36001;SDS011;22070;50.922;5.430;2023-03-23T08:13:51;7.75;;;1.40;;
36001;SDS011;22070;50.922;5.430;2023-03-23T08:16:18;3.95;;;1.17;;
36001;SDS011;22070;50.922;5.430;2023-03-23T08:18:45;4.72;;;1.25;;
36001;SDS011;22070;50.922;5.430;2023-03-23T08:21:11;7.70;;;1.30;;
36001;SDS011;22070;50.922;5.430;2023-03-23T08:23:37;4.93;;;1.00;;
36001;SDS011;22070;50.922;5.430;2023-03-23T08:26:05;4.43;;;1.20;;
36001;SDS011;22070;50.922;5.430;2023-03-23T08:28:32;5.75;;;1.35;;
36001;SDS011;22070;50.922;5.430;2023-03-23T08:30:59;5.03;;;1.20;;
36001;SDS011;22070;50.922;5.430;2023-03-23T08:33:25;5.28;;;1.23;;
36001;SDS011;22070;50.922;5.430;2023-03-23T08:35:56;4.72;;;1.10;;
36001;SDS011;22070;50.922;5.430;2023-03-23T08:38:23;5.32;;;1.00;;
36001;SDS011;22070;50.922;5.430;2023-03-23T08:40:49;4.32;;;1.42;;
36001;SDS011;22070;50.922;5.430;2023-03-23T08:43:16;5.38;;;1.25;;
36001;SDS011;22070;50.922;5.430;2023-03-23T08:45:42;3.67;;;1.50;;
36001;SDS011;22070;50.922;5.430;2023-03-23T08:48:08;4.33;;;1.03;;
36001;SDS011;22070;50.922;5.430;2023-03-23T08:50:33;5.63;;;1.30;;
36001;SDS011;22070;50.922;5.430;2023-03-23T08:53:00;5.20;;;1.30;;
36001;SDS011;22070;50.922;5.430;2023-03-23T08:55:26;8.98;;;1.55;;
36001;SDS011;22070;50.922;5.430;2023-03-23T08:57:51;3.23;;;1.20;;
36001;SDS011;22070;50.922;5.430;2023-03-23T09:00:18;3.43;;;1.47;;
36001;SDS011;22070;50.922;5.430;2023-03-23T09:02:48;5.18;;;1.10;;
36001;SDS011;22070;50.922;5.430;2023-03-23T09:05:15;4.60;;;1.52;;
36001;SDS011;22070;50.922;5.430;2023-03-23T09:07:43;7.25;;;2.75;;
36001;SDS011;22070;50.922;5.430;2023-03-23T09:10:13;2.13;;;1.25;;
36001;SDS011;22070;50.922;5.430;2023-03-23T09:15:07;3.72;;;2.30;;
36001;SDS011;22070;50.922;5.430;2023-03-23T09:17:35;4.90;;;2.28;;
36001;SDS011;22070;50.922;5.430;2023-03-23T09:20:02;3.38;;;1.48;;
36001;SDS011;22070;50.922;5.430;2023-03-23T09:22:32;1.88;;;0.90;;
36001;SDS011;22070;50.922;5.430;2023-03-23T09:24:58;2.40;;;1.50;;
36001;SDS011;22070;50.922;5.430;2023-03-23T09:27:23;5.18;;;1.60;;
36001;SDS011;22070;50.922;5.430;2023-03-23T09:29:50;7.05;;;1.38;;
36001;SDS011;22070;50.922;5.430;2023-03-23T09:32:16;2.40;;;0.90;;
36001;SDS011;22070;50.922;5.430;2023-03-23T09:34:41;4.43;;;3.07;;
36001;SDS011;22070;50.922;5.430;2023-03-23T09:37:07;3.50;;;1.38;;
36001;SDS011;22070;50.922;5.430;2023-03-23T09:39:34;3.05;;;1.20;;
36001;SDS011;22070;50.922;5.430;2023-03-23T09:42:16;1.90;;;1.40;;
36001;SDS011;22070;50.922;5.430;2023-03-23T09:52:47;3.33;;;1.65;;
36001;SDS011;22070;50.922;5.430;2023-03-23T09:55:20;6.18;;;1.33;;
36001;SDS011;22070;50.922;5.430;2023-03-23T10:00:52;4.68;;;1.10;;
36001;SDS011;22070;50.922;5.430;2023-03-23T10:03:39;5.47;;;1.30;;
36001;SDS011;22070;50.922;5.430;2023-03-23T10:06:11;2.85;;;1.00;;
36001;SDS011;22070;50.922;5.430;2023-03-23T10:08:43;1.52;;;0.70;;
36001;SDS011;22070;50.922;5.430;2023-03-23T10:16:21;2.40;;;1.20;;
36001;SDS011;22070;50.922;5.430;2023-03-23T10:21:30;3.20;;;1.58;;
36001;SDS011;22070;50.922;5.430;2023-03-23T10:24:00;3.85;;;1.95;;
36001;SDS011;22070;50.922;5.430;2023-03-23T10:29:42;2.17;;;1.20;;
36001;SDS011;22070;50.922;5.430;2023-03-23T10:32:54;3.17;;;1.15;;
36001;SDS011;22070;50.922;5.430;2023-03-23T10:35:09;5.35;;;1.30;;
36001;SDS011;22070;50.922;5.430;2023-03-23T10:37:40;2.92;;;1.13;;
36001;SDS011;22070;50.922;5.430;2023-03-23T10:40:24;3.78;;;1.10;;
36001;SDS011;22070;50.922;5.430;2023-03-23T10:42:52;3.03;;;1.17;;
36001;SDS011;22070;50.922;5.430;2023-03-23T10:47:57;4.57;;;1.48;;
36001;SDS011;22070;50.922;5.430;2023-03-23T10:50:31;2.92;;;1.00;;
36001;SDS011;22070;50.922;5.430;2023-03-23T10:53:00;2.85;;;1.35;;
36001;SDS011;22070;50.922;5.430;2023-03-23T10:55:36;2.88;;;1.05;;
36001;SDS011;22070;50.922;5.430;2023-03-23T10:58:09;4.78;;;1.45;;
36001;SDS011;22070;50.922;5.430;2023-03-23T11:00:47;2.72;;;1.15;;
36001;SDS011;22070;50.922;5.430;2023-03-23T11:05:42;1.55;;;1.08;;
36001;SDS011;22070;50.922;5.430;2023-03-23T11:08:16;3.63;;;1.27;;
36001;SDS011;22070;50.922;5.430;2023-03-23T11:10:52;2.10;;;1.50;;
36001;SDS011;22070;50.922;5.430;2023-03-23T11:13:26;3.47;;;1.00;;
36001;SDS011;22070;50.922;5.430;2023-03-23T11:15:56;1.83;;;1.13;;
36001;SDS011;22070;50.922;5.430;2023-03-23T11:18:24;2.33;;;1.30;;
36001;SDS011;22070;50.922;5.430;2023-03-23T11:20:56;2.97;;;1.50;;
36001;SDS011;22070;50.922;5.430;2023-03-23T11:23:24;2.60;;;1.55;;
36001;SDS011;22070;50.922;5.430;2023-03-23T11:28:46;5.30;;;2.03;;
36001;SDS011;22070;50.922;5.430;2023-03-23T11:31:22;2.92;;;1.40;;
36001;SDS011;22070;50.922;5.430;2023-03-23T11:33:56;3.08;;;1.80;;
36001;SDS011;22070;50.922;5.430;2023-03-23T11:36:29;3.47;;;1.77;;
36001;SDS011;22070;50.922;5.430;2023-03-23T11:39:00;5.22;;;2.35;;
36001;SDS011;22070;50.922;5.430;2023-03-23T11:41:32;2.63;;;1.63;;
36001;SDS011;22070;50.922;5.430;2023-03-23T11:44:03;3.15;;;2.08;;
36001;SDS011;22070;50.922;5.430;2023-03-23T11:46:39;2.90;;;1.67;;
36001;SDS011;22070;50.922;5.430;2023-03-23T11:49:32;5.55;;;2.00;;
36001;SDS011;22070;50.922;5.430;2023-03-23T11:55:17;3.63;;;1.75;;
36001;SDS011;22070;50.922;5.430;2023-03-23T11:57:54;2.35;;;1.83;;
36001;SDS011;22070;50.922;5.430;2023-03-23T12:00:25;3.13;;;1.90;;
36001;SDS011;22070;50.922;5.430;2023-03-23T12:06:12;2.20;;;1.58;;
36001;SDS011;22070;50.922;5.430;2023-03-23T12:08:45;5.05;;;2.10;;
36001;SDS011;22070;50.922;5.430;2023-03-23T12:11:29;4.20;;;1.95;;
36001;SDS011;22070;50.922;5.430;2023-03-23T12:14:21;3.30;;;2.17;;
36001;SDS011;22070;50.922;5.430;2023-03-23T12:25:02;4.45;;;2.50;;
36001;SDS011;22070;50.922;5.430;2023-03-23T12:30:31;2.83;;;2.10;;
36001;SDS011;22070;50.922;5.430;2023-03-23T12:44:09;3.20;;;2.05;;
36001;SDS011;22070;50.922;5.430;2023-03-23T12:49:23;3.17;;;1.42;;
36001;SDS011;22070;50.922;5.430;2023-03-23T12:52:02;6.88;;;1.55;;
36001;SDS011;22070;50.922;5.430;2023-03-23T13:02:35;4.95;;;1.25;;
36001;SDS011;22070;50.922;5.430;2023-03-23T13:07:49;2.88;;;1.23;;
36001;SDS011;22070;50.922;5.430;2023-03-23T13:10:22;4.85;;;1.63;;
36001;SDS011;22070;50.922;5.430;2023-03-23T13:12:52;5.63;;;1.70;;
36001;SDS011;22070;50.922;5.430;2023-03-23T13:18:15;4.18;;;1.52;;
36001;SDS011;22070;50.922;5.430;2023-03-23T13:21:12;5.80;;;1.60;;
36001;SDS011;22070;50.922;5.430;2023-03-23T13:24:01;4.72;;;1.63;;
36001;SDS011;22070;50.922;5.430;2023-03-23T13:26:29;3.08;;;1.95;;
36001;SDS011;22070;50.922;5.430;2023-03-23T13:28:57;6.32;;;1.55;;
36001;SDS011;22070;50.922;5.430;2023-03-23T13:31:33;5.97;;;2.15;;
36001;SDS011;22070;50.922;5.430;2023-03-23T13:37:09;7.90;;;2.10;;
36001;SDS011;22070;50.922;5.430;2023-03-23T13:39:37;3.80;;;1.75;;
36001;SDS011;22070;50.922;5.430;2023-03-23T13:42:24;2.75;;;1.67;;
36001;SDS011;22070;50.922;5.430;2023-03-23T13:47:39;8.18;;;2.60;;
36001;SDS011;22070;50.922;5.430;2023-03-23T14:16:21;7.57;;;3.05;;
36001;SDS011;22070;50.922;5.430;2023-03-23T14:18:59;10.38;;;2.75;;
36001;SDS011;22070;50.922;5.430;2023-03-23T14:21:36;8.40;;;2.22;;
36001;SDS011;22070;50.922;5.430;2023-03-23T14:24:10;7.28;;;2.25;;
36001;SDS011;22070;50.922;5.430;2023-03-23T14:26:45;8.00;;;2.25;;
36001;SDS011;22070;50.922;5.430;2023-03-23T14:29:12;6.47;;;2.10;;
36001;SDS011;22070;50.922;5.430;2023-03-23T14:31:38;11.88;;;2.38;;
36001;SDS011;22070;50.922;5.430;2023-03-23T14:34:15;8.30;;;2.63;;
36001;SDS011;22070;50.922;5.430;2023-03-23T14:36:44;6.45;;;3.20;;
36001;SDS011;22070;50.922;5.430;2023-03-23T14:42:05;3.72;;;2.38;;
36001;SDS011;22070;50.922;5.430;2023-03-23T14:44:37;10.93;;;3.00;;
36001;SDS011;22070;50.922;5.430;2023-03-23T14:47:06;4.97;;;1.90;;
36001;SDS011;22070;50.922;5.430;2023-03-23T14:49:40;3.90;;;1.85;;
36001;SDS011;22070;50.922;5.430;2023-03-23T14:52:11;6.63;;;1.85;;
36001;SDS011;22070;50.922;5.430;2023-03-23T14:54:38;5.75;;;1.90;;
36001;SDS011;22070;50.922;5.430;2023-03-23T14:59:51;5.35;;;1.85;;
36001;SDS011;22070;50.922;5.430;2023-03-23T15:02:25;10.35;;;1.80;;
36001;SDS011;22070;50.922;5.430;2023-03-23T15:05:04;4.60;;;2.00;;
36001;SDS011;22070;50.922;5.430;2023-03-23T15:07:40;5.65;;;2.00;;
36001;SDS011;22070;50.922;5.430;2023-03-23T15:10:09;5.07;;;1.98;;
36001;SDS011;22070;50.922;5.430;2023-03-23T15:12:42;9.10;;;2.33;;
36001;SDS011;22070;50.922;5.430;2023-03-23T15:15:29;7.90;;;1.90;;
36001;SDS011;22070;50.922;5.430;2023-03-23T15:17:55;5.35;;;1.85;;
36001;SDS011;22070;50.922;5.430;2023-03-23T15:20:23;6.70;;;2.03;;
36001;SDS011;22070;50.922;5.430;2023-03-23T15:23:08;5.78;;;1.70;;
36001;SDS011;22070;50.922;5.430;2023-03-23T15:25:47;9.15;;;2.10;;
36001;SDS011;22070;50.922;5.430;2023-03-23T15:28:48;7.57;;;2.17;;
36001;SDS011;22070;50.922;5.430;2023-03-23T15:31:07;9.20;;;2.10;;
36001;SDS011;22070;50.922;5.430;2023-03-23T15:33:36;4.43;;;1.70;;
36001;SDS011;22070;50.922;5.430;2023-03-23T15:36:08;7.50;;;2.25;;
36001;SDS011;22070;50.922;5.430;2023-03-23T15:38:42;5.85;;;1.77;;
36001;SDS011;22070;50.922;5.430;2023-03-23T15:41:20;4.47;;;1.55;;
36001;SDS011;22070;50.922;5.430;2023-03-23T15:43:55;8.07;;;1.73;;
36001;SDS011;22070;50.922;5.430;2023-03-23T15:46:24;5.45;;;1.60;;
36001;SDS011;22070;50.922;5.430;2023-03-23T15:49:13;9.68;;;1.80;;
36001;SDS011;22070;50.922;5.430;2023-03-23T15:51:40;7.68;;;1.83;;
36001;SDS011;22070;50.922;5.430;2023-03-23T15:54:08;5.53;;;1.80;;
36001;SDS011;22070;50.922;5.430;2023-03-23T15:56:39;6.47;;;1.60;;
36001;SDS011;22070;50.922;5.430;2023-03-23T15:59:05;8.23;;;1.75;;
36001;SDS011;22070;50.922;5.430;2023-03-23T16:03:58;10.00;;;2.00;;
36001;SDS011;22070;50.922;5.430;2023-03-23T16:06:33;6.32;;;1.50;;
36001;SDS011;22070;50.922;5.430;2023-03-23T16:09:00;4.80;;;1.45;;
36001;SDS011;22070;50.922;5.430;2023-03-23T16:11:27;5.70;;;2.07;;
36001;SDS011;22070;50.922;5.430;2023-03-23T16:13:53;9.00;;;2.28;;
36001;SDS011;22070;50.922;5.430;2023-03-23T16:16:21;5.40;;;1.90;;
36001;SDS011;22070;50.922;5.430;2023-03-23T16:18:50;4.80;;;2.03;;
36001;SDS011;22070;50.922;5.430;2023-03-23T16:21:15;8.23;;;1.50;;
36001;SDS011;22070;50.922;5.430;2023-03-23T16:23:41;7.67;;;1.73;;
36001;SDS011;22070;50.922;5.430;2023-03-23T16:26:10;8.15;;;1.70;;
36001;SDS011;22070;50.922;5.430;2023-03-23T16:28:36;5.65;;;1.95;;
36001;SDS011;22070;50.922;5.430;2023-03-23T16:31:02;4.93;;;1.50;;
36001;SDS011;22070;50.922;5.430;2023-03-23T16:33:28;7.67;;;2.00;;
36001;SDS011;22070;50.922;5.430;2023-03-23T16:35:54;7.53;;;1.90;;
36001;SDS011;22070;50.922;5.430;2023-03-23T16:38:21;7.03;;;2.03;;
36001;SDS011;22070;50.922;5.430;2023-03-23T16:40:47;5.87;;;2.07;;
36001;SDS011;22070;50.922;5.430;2023-03-23T16:43:12;4.60;;;1.50;;
36001;SDS011;22070;50.922;5.430;2023-03-23T16:45:39;9.17;;;1.97;;
36001;SDS011;22070;50.922;5.430;2023-03-23T16:48:07;11.23;;;1.83;;
36001;SDS011;22070;50.922;5.430;2023-03-23T16:50:34;5.68;;;1.90;;
36001;SDS011;22070;50.922;5.430;2023-03-23T16:53:02;7.03;;;1.70;;
36001;SDS011;22070;50.922;5.430;2023-03-23T16:55:28;3.88;;;1.60;;
36001;SDS011;22070;50.922;5.430;2023-03-23T16:57:55;5.15;;;1.60;;
36001;SDS011;22070;50.922;5.430;2023-03-23T17:02:50;7.20;;;1.52;;
36001;SDS011;22070;50.922;5.430;2023-03-23T17:05:17;6.15;;;1.98;;
36001;SDS011;22070;50.922;5.430;2023-03-23T17:07:44;4.15;;;1.60;;
36001;SDS011;22070;50.922;5.430;2023-03-23T17:10:10;5.07;;;1.60;;
36001;SDS011;22070;50.922;5.430;2023-03-23T17:12:37;4.47;;;1.65;;
36001;SDS011;22070;50.922;5.430;2023-03-23T17:15:04;5.68;;;1.73;;
36001;SDS011;22070;50.922;5.430;2023-03-23T17:17:31;6.70;;;1.63;;
36001;SDS011;22070;50.922;5.430;2023-03-23T17:19:56;6.47;;;1.90;;
36001;SDS011;22070;50.922;5.430;2023-03-23T17:22:22;6.17;;;1.50;;
36001;SDS011;22070;50.922;5.430;2023-03-23T17:24:49;7.00;;;1.85;;
36001;SDS011;22070;50.922;5.430;2023-03-23T17:27:15;7.73;;;1.83;;
36001;SDS011;22070;50.922;5.430;2023-03-23T17:29:42;9.07;;;1.95;;
36001;SDS011;22070;50.922;5.430;2023-03-23T17:32:08;8.00;;;1.95;;